sensor_id;sensor_type;location;lat;lon;timestamp;pressure;altitude;pressure_sealevel;temperature;humidity
73106;BME280;61559;50.476;15.588;2023-06-05T00:00:18;98017.70;;;11.46;57.92
73106;BME280;61559;50.476;15.588;2023-06-05T00:03:09;98017.45;;;11.46;57.97
73106;BME280;61559;50.476;15.588;2023-06-05T00:05:40;98016.75;;;11.43;58.13
73106;BME280;61559;50.476;15.588;2023-06-05T00:08:12;98019.34;;;11.40;58.39
73106;BME280;61559;50.476;15.588;2023-06-05T00:10:43;98016.58;;;11.36;58.45
73106;BME280;61559;50.476;15.588;2023-06-05T00:13:14;98010.09;;;11.32;58.62
73106;BME280;61559;50.476;15.588;2023-06-05T00:15:46;98006.84;;;11.28;58.72
73106;BME280;61559;50.476;15.588;2023-06-05T00:18:17;98006.74;;;11.23;58.82
73106;BME280;61559;50.476;15.588;2023-06-05T00:20:48;98006.60;;;11.18;58.97
73106;BME280;61559;50.476;15.588;2023-06-05T00:23:19;98009.83;;;11.13;59.03
73106;BME280;61559;50.476;15.588;2023-06-05T00:25:50;98007.27;;;11.07;58.96
73106;BME280;61559;50.476;15.588;2023-06-05T00:28:22;98004.86;;;11.01;59.12
73106;BME280;61559;50.476;15.588;2023-06-05T00:30:53;98002.18;;;10.95;59.09
73106;BME280;61559;50.476;15.588;2023-06-05T00:33:25;97999.45;;;10.88;59.23
73106;BME280;61559;50.476;15.588;2023-06-05T00:35:56;97998.54;;;10.81;59.10
73106;BME280;61559;50.476;15.588;2023-06-05T00:38:27;98002.11;;;10.76;59.15
73106;BME280;61559;50.476;15.588;2023-06-05T00:40:58;97999.14;;;10.71;59.26
73106;BME280;61559;50.476;15.588;2023-06-05T00:43:29;98001.94;;;10.66;59.44
73106;BME280;61559;50.476;15.588;2023-06-05T00:46:03;97997.38;;;10.61;59.57
73106;BME280;61559;50.476;15.588;2023-06-05T00:48:35;97995.98;;;10.55;59.64
73106;BME280;61559;50.476;15.588;2023-06-05T00:51:06;97992.40;;;10.49;59.69
73106;BME280;61559;50.476;15.588;2023-06-05T00:53:40;97994.63;;;10.44;60.01
73106;BME280;61559;50.476;15.588;2023-06-05T00:56:12;97992.04;;;10.39;60.21
73106;BME280;61559;50.476;15.588;2023-06-05T00:58:44;97992.09;;;10.32;60.29
73106;BME280;61559;50.476;15.588;2023-06-05T01:01:15;97990.27;;;10.26;60.47
73106;BME280;61559;50.476;15.588;2023-06-05T01:03:46;97983.34;;;10.19;60.77
73106;BME280;61559;50.476;15.588;2023-06-05T01:06:19;97982.55;;;10.12;60.93
73106;BME280;61559;50.476;15.588;2023-06-05T01:08:50;97981.94;;;10.08;61.16
73106;BME280;61559;50.476;15.588;2023-06-05T01:11:34;97984.58;;;10.02;61.34
73106;BME280;61559;50.476;15.588;2023-06-05T01:14:18;97985.48;;;9.97;61.33
73106;BME280;61559;50.476;15.588;2023-06-05T01:16:53;97984.14;;;9.91;61.41
73106;BME280;61559;50.476;15.588;2023-06-05T01:19:26;97984.98;;;9.85;61.37
73106;BME280;61559;50.476;15.588;2023-06-05T01:21:58;97986.42;;;9.79;61.59
73106;BME280;61559;50.476;15.588;2023-06-05T01:24:30;97986.25;;;9.73;61.68
73106;BME280;61559;50.476;15.588;2023-06-05T01:27:10;97991.41;;;9.67;61.89
73106;BME280;61559;50.476;15.588;2023-06-05T01:29:53;97995.86;;;9.61;62.20
73106;BME280;61559;50.476;15.588;2023-06-05T01:32:31;97997.52;;;9.54;62.08
73106;BME280;61559;50.476;15.588;2023-06-05T01:35:08;97995.11;;;9.50;62.16
73106;BME280;61559;50.476;15.588;2023-06-05T01:37:42;97990.13;;;9.44;62.45
73106;BME280;61559;50.476;15.588;2023-06-05T01:40:19;97992.52;;;9.40;62.70
73106;BME280;61559;50.476;15.588;2023-06-05T01:42:52;97994.81;;;9.36;62.79
73106;BME280;61559;50.476;15.588;2023-06-05T01:45:24;97997.05;;;9.32;62.96
73106;BME280;61559;50.476;15.588;2023-06-05T01:47:56;97996.98;;;9.26;63.11
73106;BME280;61559;50.476;15.588;2023-06-05T01:50:27;97997.95;;;9.21;63.35
73106;BME280;61559;50.476;15.588;2023-06-05T01:52:58;97999.27;;;9.17;63.32
73106;BME280;61559;50.476;15.588;2023-06-05T01:55:32;97996.12;;;9.11;63.44
73106;BME280;61559;50.476;15.588;2023-06-05T01:58:03;97996.82;;;9.07;63.65
73106;BME280;61559;50.476;15.588;2023-06-05T02:00:34;97995.52;;;9.02;63.94
73106;BME280;61559;50.476;15.588;2023-06-05T02:03:06;97992.12;;;8.96;64.35
73106;BME280;61559;50.476;15.588;2023-06-05T02:05:37;97990.66;;;8.91;64.31
73106;BME280;61559;50.476;15.588;2023-06-05T02:08:09;97993.58;;;8.88;64.23
73106;BME280;61559;50.476;15.588;2023-06-05T02:10:40;97990.74;;;8.86;64.26
73106;BME280;61559;50.476;15.588;2023-06-05T02:13:14;97991.48;;;8.85;64.18
73106;BME280;61559;50.476;15.588;2023-06-05T02:15:46;97988.34;;;8.82;64.35
73106;BME280;61559;50.476;15.588;2023-06-05T02:18:18;97984.83;;;8.80;64.41
73106;BME280;61559;50.476;15.588;2023-06-05T02:20:54;97988.69;;;8.77;64.49
73106;BME280;61559;50.476;15.588;2023-06-05T02:23:26;97982.84;;;8.73;64.59
73106;BME280;61559;50.476;15.588;2023-06-05T02:25:57;97983.20;;;8.70;64.71
73106;BME280;61559;50.476;15.588;2023-06-05T02:28:26;97979.46;;;8.67;65.00
73106;BME280;61559;50.476;15.588;2023-06-05T02:30:57;97977.00;;;8.62;64.98
73106;BME280;61559;50.476;15.588;2023-06-05T02:33:30;97978.83;;;8.59;65.00
73106;BME280;61559;50.476;15.588;2023-06-05T02:36:01;97979.79;;;8.57;65.24
73106;BME280;61559;50.476;15.588;2023-06-05T02:38:33;97978.59;;;8.55;65.23
73106;BME280;61559;50.476;15.588;2023-06-05T02:41:04;97979.63;;;8.53;65.29
73106;BME280;61559;50.476;15.588;2023-06-05T02:43:36;97977.57;;;8.51;65.59
73106;BME280;61559;50.476;15.588;2023-06-05T02:46:07;97979.45;;;8.49;65.57
73106;BME280;61559;50.476;15.588;2023-06-05T02:48:38;97981.86;;;8.49;65.72
73106;BME280;61559;50.476;15.588;2023-06-05T02:51:09;97985.98;;;8.48;65.91
73106;BME280;61559;50.476;15.588;2023-06-05T02:53:41;97986.04;;;8.48;65.94
73106;BME280;61559;50.476;15.588;2023-06-05T02:56:11;97987.46;;;8.48;65.95
73106;BME280;61559;50.476;15.588;2023-06-05T02:58:43;97984.55;;;8.47;66.04
73106;BME280;61559;50.476;15.588;2023-06-05T03:01:15;97987.30;;;8.45;66.18
73106;BME280;61559;50.476;15.588;2023-06-05T03:03:46;97982.64;;;8.45;66.24
73106;BME280;61559;50.476;15.588;2023-06-05T03:06:18;97982.44;;;8.45;66.30
73106;BME280;61559;50.476;15.588;2023-06-05T03:08:49;97977.42;;;8.44;66.54
73106;BME280;61559;50.476;15.588;2023-06-05T03:11:22;97973.89;;;8.43;66.58
73106;BME280;61559;50.476;15.588;2023-06-05T03:13:55;97974.73;;;8.42;66.67
73106;BME280;61559;50.476;15.588;2023-06-05T03:16:26;97972.16;;;8.42;66.82
73106;BME280;61559;50.476;15.588;2023-06-05T03:19:07;97971.68;;;8.43;66.73
73106;BME280;61559;50.476;15.588;2023-06-05T03:21:38;97971.02;;;8.45;66.98
73106;BME280;61559;50.476;15.588;2023-06-05T03:24:11;97967.92;;;8.47;66.95
73106;BME280;61559;50.476;15.588;2023-06-05T03:26:44;97969.31;;;8.50;66.93
73106;BME280;61559;50.476;15.588;2023-06-05T03:29:15;97967.84;;;8.52;66.94
73106;BME280;61559;50.476;15.588;2023-06-05T03:31:46;97969.42;;;8.53;66.98
73106;BME280;61559;50.476;15.588;2023-06-05T03:34:20;97966.21;;;8.55;67.06
73106;BME280;61559;50.476;15.588;2023-06-05T03:36:52;97963.05;;;8.57;67.17
73106;BME280;61559;50.476;15.588;2023-06-05T03:39:23;97964.16;;;8.58;67.16
73106;BME280;61559;50.476;15.588;2023-06-05T03:41:55;97966.41;;;8.59;67.21
73106;BME280;61559;50.476;15.588;2023-06-05T03:44:26;97964.61;;;8.62;67.27
73106;BME280;61559;50.476;15.588;2023-06-05T03:46:57;97963.66;;;8.65;67.25
73106;BME280;61559;50.476;15.588;2023-06-05T03:49:28;97961.18;;;8.69;67.26
73106;BME280;61559;50.476;15.588;2023-06-05T03:52:02;97960.64;;;8.74;67.31
73106;BME280;61559;50.476;15.588;2023-06-05T03:54:42;97956.23;;;8.79;67.27
73106;BME280;61559;50.476;15.588;2023-06-05T03:57:21;97959.39;;;8.90;67.19
73106;BME280;61559;50.476;15.588;2023-06-05T03:59:53;97961.52;;;8.95;67.08
73106;BME280;61559;50.476;15.588;2023-06-05T04:02:24;97964.95;;;9.02;67.16
73106;BME280;61559;50.476;15.588;2023-06-05T04:04:56;97963.52;;;9.09;67.05
73106;BME280;61559;50.476;15.588;2023-06-05T04:07:27;97964.03;;;9.18;67.13
73106;BME280;61559;50.476;15.588;2023-06-05T04:09:58;97966.96;;;9.29;66.98
73106;BME280;61559;50.476;15.588;2023-06-05T04:12:27;97963.70;;;9.41;66.97
73106;BME280;61559;50.476;15.588;2023-06-05T04:14:58;97965.33;;;9.52;66.75
73106;BME280;61559;50.476;15.588;2023-06-05T04:17:31;97958.23;;;9.77;66.37
73106;BME280;61559;50.476;15.588;2023-06-05T04:20:02;97956.21;;;10.02;65.84
73106;BME280;61559;50.476;15.588;2023-06-05T04:22:34;97959.64;;;10.25;65.41
73106;BME280;61559;50.476;15.588;2023-06-05T04:25:05;97957.54;;;10.53;64.82
73106;BME280;61559;50.476;15.588;2023-06-05T04:27:37;97957.83;;;10.80;64.49
73106;BME280;61559;50.476;15.588;2023-06-05T04:30:10;97955.18;;;11.06;64.06
73106;BME280;61559;50.476;15.588;2023-06-05T04:32:41;97955.89;;;11.35;63.50
73106;BME280;61559;50.476;15.588;2023-06-05T04:35:23;97955.69;;;11.69;62.90
73106;BME280;61559;50.476;15.588;2023-06-05T04:37:55;97951.10;;;12.01;62.48
73106;BME280;61559;50.476;15.588;2023-06-05T04:40:26;97953.58;;;12.34;62.07
73106;BME280;61559;50.476;15.588;2023-06-05T04:42:58;97956.05;;;12.66;61.39
73106;BME280;61559;50.476;15.588;2023-06-05T04:45:29;97955.14;;;12.99;60.97
73106;BME280;61559;50.476;15.588;2023-06-05T04:48:00;97951.46;;;13.32;60.28
73106;BME280;61559;50.476;15.588;2023-06-05T04:50:32;97950.01;;;13.68;59.74
73106;BME280;61559;50.476;15.588;2023-06-05T04:53:05;97949.77;;;14.06;59.42
73106;BME280;61559;50.476;15.588;2023-06-05T04:55:37;97943.58;;;14.47;58.87
73106;BME280;61559;50.476;15.588;2023-06-05T04:58:08;97942.77;;;14.89;58.33
73106;BME280;61559;50.476;15.588;2023-06-05T05:00:39;97946.13;;;15.34;57.61
73106;BME280;61559;50.476;15.588;2023-06-05T05:03:10;97947.31;;;15.77;56.67
73106;BME280;61559;50.476;15.588;2023-06-05T05:05:43;97943.65;;;16.20;55.85
73106;BME280;61559;50.476;15.588;2023-06-05T05:08:15;97937.48;;;16.62;54.72
73106;BME280;61559;50.476;15.588;2023-06-05T05:10:46;97940.42;;;16.93;53.70
73106;BME280;61559;50.476;15.588;2023-06-05T05:13:17;97943.30;;;17.29;52.48
73106;BME280;61559;50.476;15.588;2023-06-05T05:15:49;97944.11;;;17.67;51.60
73106;BME280;61559;50.476;15.588;2023-06-05T05:18:22;97943.71;;;18.02;49.90
73106;BME280;61559;50.476;15.588;2023-06-05T05:20:54;97941.41;;;18.28;46.64
73106;BME280;61559;50.476;15.588;2023-06-05T05:23:25;97939.11;;;18.33;47.37
73106;BME280;61559;50.476;15.588;2023-06-05T05:25:56;97939.55;;;18.15;46.39
73106;BME280;61559;50.476;15.588;2023-06-05T05:28:27;97946.27;;;18.11;46.03
73106;BME280;61559;50.476;15.588;2023-06-05T05:30:58;97945.84;;;18.21;46.81
73106;BME280;61559;50.476;15.588;2023-06-05T05:33:30;97942.97;;;18.03;46.17
73106;BME280;61559;50.476;15.588;2023-06-05T05:36:01;97946.16;;;17.79;46.20
73106;BME280;61559;50.476;15.588;2023-06-05T05:38:32;97944.34;;;17.57;45.67
73106;BME280;61559;50.476;15.588;2023-06-05T05:41:03;97942.90;;;17.42;46.79
73106;BME280;61559;50.476;15.588;2023-06-05T05:43:34;97945.13;;;17.30;46.36
73106;BME280;61559;50.476;15.588;2023-06-05T05:46:06;97945.95;;;17.23;47.25
73106;BME280;61559;50.476;15.588;2023-06-05T05:48:37;97948.30;;;17.19;45.66
73106;BME280;61559;50.476;15.588;2023-06-05T05:51:09;97952.61;;;17.19;45.96
73106;BME280;61559;50.476;15.588;2023-06-05T05:53:40;97951.63;;;17.21;44.84
73106;BME280;61559;50.476;15.588;2023-06-05T05:56:12;97949.32;;;17.24;45.24
73106;BME280;61559;50.476;15.588;2023-06-05T05:58:43;97953.84;;;17.31;45.28
73106;BME280;61559;50.476;15.588;2023-06-05T06:01:14;97955.42;;;17.36;43.74
73106;BME280;61559;50.476;15.588;2023-06-05T06:03:45;97954.19;;;17.41;44.18
73106;BME280;61559;50.476;15.588;2023-06-05T06:06:17;97953.39;;;17.49;44.43
73106;BME280;61559;50.476;15.588;2023-06-05T06:08:48;97954.23;;;17.57;42.57
73106;BME280;61559;50.476;15.588;2023-06-05T06:11:19;97953.12;;;17.66;42.12
73106;BME280;61559;50.476;15.588;2023-06-05T06:13:50;97950.15;;;17.78;42.22
73106;BME280;61559;50.476;15.588;2023-06-05T06:16:21;97952.14;;;17.91;42.72
73106;BME280;61559;50.476;15.588;2023-06-05T06:18:52;97952.46;;;18.04;41.10
73106;BME280;61559;50.476;15.588;2023-06-05T06:21:27;97950.38;;;18.17;41.55
73106;BME280;61559;50.476;15.588;2023-06-05T06:23:59;97951.48;;;18.28;42.43
73106;BME280;61559;50.476;15.588;2023-06-05T06:26:31;97953.86;;;18.41;40.42
73106;BME280;61559;50.476;15.588;2023-06-05T06:29:02;97957.27;;;18.52;40.65
73106;BME280;61559;50.476;15.588;2023-06-05T06:31:33;97952.46;;;18.63;39.89
73106;BME280;61559;50.476;15.588;2023-06-05T06:34:04;97949.39;;;18.70;39.46
73106;BME280;61559;50.476;15.588;2023-06-05T06:36:35;97947.66;;;18.78;39.23
73106;BME280;61559;50.476;15.588;2023-06-05T06:39:10;97947.98;;;18.89;40.63
73106;BME280;61559;50.476;15.588;2023-06-05T06:41:41;97946.36;;;19.00;38.25
73106;BME280;61559;50.476;15.588;2023-06-05T06:44:13;97949.17;;;19.11;37.50
73106;BME280;61559;50.476;15.588;2023-06-05T06:46:44;97950.47;;;19.22;37.43
73106;BME280;61559;50.476;15.588;2023-06-05T06:49:15;97950.36;;;19.35;37.98
73106;BME280;61559;50.476;15.588;2023-06-05T06:51:46;97953.02;;;19.50;36.74
73106;BME280;61559;50.476;15.588;2023-06-05T06:54:18;97952.73;;;19.60;36.63
73106;BME280;61559;50.476;15.588;2023-06-05T06:56:49;97949.21;;;19.72;36.95
73106;BME280;61559;50.476;15.588;2023-06-05T06:59:20;97951.80;;;19.87;36.38
73106;BME280;61559;50.476;15.588;2023-06-05T07:02:11;97949.09;;;19.93;35.27
73106;BME280;61559;50.476;15.588;2023-06-05T07:04:43;97952.09;;;19.95;35.22
73106;BME280;61559;50.476;15.588;2023-06-05T07:07:17;97946.16;;;20.00;35.91
73106;BME280;61559;50.476;15.588;2023-06-05T07:09:50;97949.70;;;20.08;36.18
73106;BME280;61559;50.476;15.588;2023-06-05T07:12:21;97948.30;;;20.17;36.37
73106;BME280;61559;50.476;15.588;2023-06-05T07:14:53;97953.27;;;20.22;34.70
73106;BME280;61559;50.476;15.588;2023-06-05T07:17:25;97950.33;;;20.25;35.89
73106;BME280;61559;50.476;15.588;2023-06-05T07:19:58;97949.29;;;20.26;35.62
73106;BME280;61559;50.476;15.588;2023-06-05T07:22:31;97952.25;;;20.30;36.78
73106;BME280;61559;50.476;15.588;2023-06-05T07:25:02;97951.79;;;20.36;36.47
73106;BME280;61559;50.476;15.588;2023-06-05T07:27:34;97951.50;;;20.43;36.80
73106;BME280;61559;50.476;15.588;2023-06-05T07:30:09;97951.40;;;20.48;36.49
73106;BME280;61559;50.476;15.588;2023-06-05T07:32:40;97950.70;;;20.52;36.33
73106;BME280;61559;50.476;15.588;2023-06-05T07:35:13;97951.96;;;20.53;35.88
73106;BME280;61559;50.476;15.588;2023-06-05T07:37:44;97947.58;;;20.55;35.30
73106;BME280;61559;50.476;15.588;2023-06-05T07:40:16;97951.86;;;20.57;34.58
73106;BME280;61559;50.476;15.588;2023-06-05T07:42:47;97946.81;;;20.60;35.15
73106;BME280;61559;50.476;15.588;2023-06-05T07:45:18;97949.36;;;20.62;34.53
73106;BME280;61559;50.476;15.588;2023-06-05T07:47:49;97947.58;;;20.64;35.30
73106;BME280;61559;50.476;15.588;2023-06-05T07:50:21;97947.95;;;20.73;35.01
73106;BME280;61559;50.476;15.588;2023-06-05T07:52:52;97943.24;;;20.84;34.70
73106;BME280;61559;50.476;15.588;2023-06-05T07:55:23;97937.85;;;20.94;34.69
73106;BME280;61559;50.476;15.588;2023-06-05T07:57:54;97940.85;;;21.06;34.80
73106;BME280;61559;50.476;15.588;2023-06-05T08:00:27;97938.67;;;21.17;34.83
73106;BME280;61559;50.476;15.588;2023-06-05T08:02:58;97933.02;;;21.30;34.37
73106;BME280;61559;50.476;15.588;2023-06-05T08:05:30;97936.83;;;21.40;32.88
73106;BME280;61559;50.476;15.588;2023-06-05T08:08:01;97935.97;;;21.47;31.66
73106;BME280;61559;50.476;15.588;2023-06-05T08:10:32;97935.33;;;21.54;33.30
73106;BME280;61559;50.476;15.588;2023-06-05T08:13:03;97933.95;;;21.65;34.12
73106;BME280;61559;50.476;15.588;2023-06-05T08:15:34;97932.19;;;21.79;33.08
73106;BME280;61559;50.476;15.588;2023-06-05T08:18:06;97932.88;;;21.83;32.16
73106;BME280;61559;50.476;15.588;2023-06-05T08:20:37;97931.68;;;21.82;32.59
73106;BME280;61559;50.476;15.588;2023-06-05T08:23:09;97931.67;;;21.83;32.13
73106;BME280;61559;50.476;15.588;2023-06-05T08:25:40;97932.87;;;21.81;32.75
73106;BME280;61559;50.476;15.588;2023-06-05T08:28:12;97932.86;;;21.79;31.24
73106;BME280;61559;50.476;15.588;2023-06-05T08:30:44;97929.77;;;21.75;31.88
73106;BME280;61559;50.476;15.588;2023-06-05T08:33:16;97936.02;;;21.80;32.10
73106;BME280;61559;50.476;15.588;2023-06-05T08:35:49;97939.23;;;21.82;31.36
73106;BME280;61559;50.476;15.588;2023-06-05T08:38:21;97939.54;;;21.81;31.09
73106;BME280;61559;50.476;15.588;2023-06-05T08:40:59;97939.52;;;21.76;31.09
73106;BME280;61559;50.476;15.588;2023-06-05T08:43:30;97938.61;;;21.76;31.52
73106;BME280;61559;50.476;15.588;2023-06-05T08:46:02;97935.54;;;21.74;31.25
73106;BME280;61559;50.476;15.588;2023-06-05T08:48:40;97933.14;;;21.74;31.92
73106;BME280;61559;50.476;15.588;2023-06-05T08:51:14;97934.06;;;21.79;32.98
73106;BME280;61559;50.476;15.588;2023-06-05T08:53:54;97937.54;;;21.87;32.96
73106;BME280;61559;50.476;15.588;2023-06-05T08:56:26;97935.17;;;21.95;33.01
73106;BME280;61559;50.476;15.588;2023-06-05T08:58:59;97936.33;;;22.03;31.82
73106;BME280;61559;50.476;15.588;2023-06-05T09:01:31;97939.11;;;22.03;32.04
73106;BME280;61559;50.476;15.588;2023-06-05T09:04:03;97935.38;;;22.05;32.12
73106;BME280;61559;50.476;15.588;2023-06-05T09:06:34;97933.44;;;22.07;30.85
73106;BME280;61559;50.476;15.588;2023-06-05T09:09:06;97933.80;;;22.04;30.52
73106;BME280;61559;50.476;15.588;2023-06-05T09:11:37;97931.70;;;22.06;31.22
73106;BME280;61559;50.476;15.588;2023-06-05T09:14:09;97930.67;;;22.11;30.90
73106;BME280;61559;50.476;15.588;2023-06-05T09:16:41;97934.89;;;22.18;32.20
73106;BME280;61559;50.476;15.588;2023-06-05T09:19:13;97927.92;;;22.30;31.47
73106;BME280;61559;50.476;15.588;2023-06-05T09:21:52;97931.11;;;22.43;32.03
73106;BME280;61559;50.476;15.588;2023-06-05T09:24:25;97928.71;;;22.48;30.43
73106;BME280;61559;50.476;15.588;2023-06-05T09:27:00;97928.48;;;22.50;31.19
73106;BME280;61559;50.476;15.588;2023-06-05T09:29:33;97928.31;;;22.59;31.69
73106;BME280;61559;50.476;15.588;2023-06-05T09:32:05;97923.06;;;22.61;30.15
73106;BME280;61559;50.476;15.588;2023-06-05T09:34:38;97920.00;;;22.54;30.36
73106;BME280;61559;50.476;15.588;2023-06-05T09:37:11;97917.14;;;22.56;31.45
73106;BME280;61559;50.476;15.588;2023-06-05T09:39:43;97914.38;;;22.53;30.21
73106;BME280;61559;50.476;15.588;2023-06-05T09:42:14;97913.94;;;22.46;30.28
73106;BME280;61559;50.476;15.588;2023-06-05T09:44:59;97914.76;;;22.42;30.38
73106;BME280;61559;50.476;15.588;2023-06-05T09:47:30;97909.95;;;22.37;30.56
73106;BME280;61559;50.476;15.588;2023-06-05T09:50:24;97912.73;;;22.39;30.81
73106;BME280;61559;50.476;15.588;2023-06-05T09:52:58;97911.83;;;22.42;30.91
73106;BME280;61559;50.476;15.588;2023-06-05T09:55:30;97905.54;;;22.49;31.89
73106;BME280;61559;50.476;15.588;2023-06-05T09:58:05;97908.06;;;22.63;32.29
73106;BME280;61559;50.476;15.588;2023-06-05T10:00:43;97902.67;;;22.80;32.18
73106;BME280;61559;50.476;15.588;2023-06-05T10:03:17;97901.39;;;22.98;33.05
73106;BME280;61559;50.476;15.588;2023-06-05T10:05:49;97901.75;;;23.13;31.55
73106;BME280;61559;50.476;15.588;2023-06-05T10:08:30;97904.80;;;23.22;31.65
73106;BME280;61559;50.476;15.588;2023-06-05T10:11:02;97902.00;;;23.28;31.69
73106;BME280;61559;50.476;15.588;2023-06-05T10:13:34;97902.21;;;23.36;32.20
73106;BME280;61559;50.476;15.588;2023-06-05T10:16:06;97903.75;;;23.41;30.94
73106;BME280;61559;50.476;15.588;2023-06-05T10:18:55;97900.94;;;23.34;30.76
73106;BME280;61559;50.476;15.588;2023-06-05T10:21:27;97904.28;;;23.19;29.34
73106;BME280;61559;50.476;15.588;2023-06-05T10:24:02;97903.63;;;23.08;30.13
73106;BME280;61559;50.476;15.588;2023-06-05T10:26:53;97899.58;;;23.06;30.03
73106;BME280;61559;50.476;15.588;2023-06-05T10:29:47;97898.52;;;23.02;30.32
73106;BME280;61559;50.476;15.588;2023-06-05T10:32:29;97900.27;;;22.96;30.40
73106;BME280;61559;50.476;15.588;2023-06-05T10:35:08;97900.88;;;22.92;30.27
73106;BME280;61559;50.476;15.588;2023-06-05T10:37:51;97896.08;;;22.90;30.48
73106;BME280;61559;50.476;15.588;2023-06-05T10:40:27;97892.09;;;22.96;31.29
73106;BME280;61559;50.476;15.588;2023-06-05T10:43:30;97892.38;;;23.07;30.73
73106;BME280;61559;50.476;15.588;2023-06-05T10:49:12;97889.42;;;23.19;30.13
73106;BME280;61559;50.476;15.588;2023-06-05T10:51:46;97887.90;;;23.25;30.37
73106;BME280;61559;50.476;15.588;2023-06-05T10:54:56;97887.05;;;23.34;30.34
73106;BME280;61559;50.476;15.588;2023-06-05T10:57:27;97887.36;;;23.43;29.76
73106;BME280;61559;50.476;15.588;2023-06-05T11:00:19;97886.47;;;23.43;29.77
73106;BME280;61559;50.476;15.588;2023-06-05T11:02:50;97882.73;;;23.40;29.67
73106;BME280;61559;50.476;15.588;2023-06-05T11:05:23;97882.83;;;23.39;29.71
73106;BME280;61559;50.476;15.588;2023-06-05T11:08:11;97881.05;;;23.43;29.70
73106;BME280;61559;50.476;15.588;2023-06-05T11:11:09;97878.17;;;23.49;30.24
73106;BME280;61559;50.476;15.588;2023-06-05T11:13:55;97874.62;;;23.62;29.82
73106;BME280;61559;50.476;15.588;2023-06-05T11:16:42;97879.00;;;23.74;30.30
73106;BME280;61559;50.476;15.588;2023-06-05T11:19:37;97877.70;;;23.78;29.97
73106;BME280;61559;50.476;15.588;2023-06-05T11:22:09;97883.32;;;23.81;30.04
73106;BME280;61559;50.476;15.588;2023-06-05T11:24:41;97878.77;;;23.89;29.74
73106;BME280;61559;50.476;15.588;2023-06-05T11:30:21;97879.60;;;24.01;28.87
73106;BME280;61559;50.476;15.588;2023-06-05T11:33:13;97871.74;;;23.95;28.72
73106;BME280;61559;50.476;15.588;2023-06-05T11:35:47;97870.09;;;23.96;29.96
73106;BME280;61559;50.476;15.588;2023-06-05T11:38:20;97876.71;;;24.08;30.35
73106;BME280;61559;50.476;15.588;2023-06-05T11:40:55;97877.49;;;24.14;29.40
73106;BME280;61559;50.476;15.588;2023-06-05T11:43:26;97874.66;;;24.10;29.28
73106;BME280;61559;50.476;15.588;2023-06-05T11:45:58;97872.14;;;24.05;29.85
73106;BME280;61559;50.476;15.588;2023-06-05T11:48:31;97876.94;;;24.07;30.33
73106;BME280;61559;50.476;15.588;2023-06-05T11:51:04;97881.27;;;24.11;30.65
73106;BME280;61559;50.476;15.588;2023-06-05T11:53:35;97877.61;;;24.19;31.19
73106;BME280;61559;50.476;15.588;2023-06-05T11:56:13;97874.79;;;24.28;30.27
73106;BME280;61559;50.476;15.588;2023-06-05T11:58:48;97878.02;;;24.26;29.55
73106;BME280;61559;50.476;15.588;2023-06-05T12:01:20;97869.17;;;24.22;29.50
73106;BME280;61559;50.476;15.588;2023-06-05T12:04:03;97871.58;;;24.22;29.97
73106;BME280;61559;50.476;15.588;2023-06-05T12:06:41;97870.42;;;24.26;30.53
73106;BME280;61559;50.476;15.588;2023-06-05T12:09:13;97871.31;;;24.28;31.04
73106;BME280;61559;50.476;15.588;2023-06-05T12:11:45;97870.77;;;24.31;31.10
73106;BME280;61559;50.476;15.588;2023-06-05T12:14:31;97872.06;;;24.28;30.62
73106;BME280;61559;50.476;15.588;2023-06-05T12:17:10;97874.25;;;24.15;30.75
73106;BME280;61559;50.476;15.588;2023-06-05T12:19:42;97871.08;;;24.08;31.16
73106;BME280;61559;50.476;15.588;2023-06-05T12:22:13;97873.29;;;24.02;31.12
73106;BME280;61559;50.476;15.588;2023-06-05T12:24:44;97870.64;;;23.92;30.76
73106;BME280;61559;50.476;15.588;2023-06-05T12:27:15;97870.23;;;23.82;30.98
73106;BME280;61559;50.476;15.588;2023-06-05T12:29:55;97866.98;;;23.75;31.56
73106;BME280;61559;50.476;15.588;2023-06-05T12:32:27;97875.23;;;23.62;31.38
73106;BME280;61559;50.476;15.588;2023-06-05T12:34:58;97871.86;;;23.52;32.54
73106;BME280;61559;50.476;15.588;2023-06-05T12:37:36;97871.12;;;23.47;32.88
73106;BME280;61559;50.476;15.588;2023-06-05T12:40:11;97880.23;;;23.43;33.82
73106;BME280;61559;50.476;15.588;2023-06-05T12:42:58;97883.52;;;23.07;35.95
73106;BME280;61559;50.476;15.588;2023-06-05T12:45:29;97885.34;;;22.69;37.57
73106;BME280;61559;50.476;15.588;2023-06-05T12:48:00;97891.73;;;22.36;39.57
73106;BME280;61559;50.476;15.588;2023-06-05T12:50:31;97890.20;;;22.15;40.67
73106;BME280;61559;50.476;15.588;2023-06-05T12:53:02;97891.95;;;21.97;41.81
73106;BME280;61559;50.476;15.588;2023-06-05T12:55:33;97897.06;;;21.82;42.70
73106;BME280;61559;50.476;15.588;2023-06-05T12:58:04;97903.19;;;21.76;43.15
73106;BME280;61559;50.476;15.588;2023-06-05T13:00:36;97896.23;;;21.77;43.36
73106;BME280;61559;50.476;15.588;2023-06-05T13:03:07;97899.39;;;21.85;43.64
73106;BME280;61559;50.476;15.588;2023-06-05T13:05:39;97895.75;;;21.91;44.42
73106;BME280;61559;50.476;15.588;2023-06-05T13:08:11;97901.98;;;21.96;44.85
73106;BME280;61559;50.476;15.588;2023-06-05T13:10:42;97905.64;;;21.95;45.40
73106;BME280;61559;50.476;15.588;2023-06-05T13:13:13;97904.13;;;21.89;46.15
73106;BME280;61559;50.476;15.588;2023-06-05T13:15:46;97907.80;;;21.91;46.26
73106;BME280;61559;50.476;15.588;2023-06-05T13:18:17;97908.39;;;21.84;47.41
73106;BME280;61559;50.476;15.588;2023-06-05T13:20:48;97908.80;;;21.73;47.57
73106;BME280;61559;50.476;15.588;2023-06-05T13:23:19;97908.55;;;21.69;47.92
73106;BME280;61559;50.476;15.588;2023-06-05T13:25:51;97910.80;;;21.68;48.16
73106;BME280;61559;50.476;15.588;2023-06-05T13:28:22;97913.50;;;21.69;48.19
73106;BME280;61559;50.476;15.588;2023-06-05T13:30:53;97915.75;;;21.63;48.07